createdAt,value
2023-03-10T00:01:17.126Z,82.23
2023-03-10T00:03:44.695Z,82.46
2023-03-10T00:06:14.452Z,82.84
2023-03-10T00:08:43.061Z,82.42
2023-03-10T00:11:11.490Z,82.96
2023-03-10T00:13:38.990Z,82.98
2023-03-10T00:16:07.500Z,82.27
2023-03-10T00:18:35.145Z,81.96
2023-03-10T00:21:02.611Z,82.78
2023-03-10T00:23:30.914Z,83.31
2023-03-10T00:26:00.796Z,83.43
2023-03-10T00:28:28.434Z,82.15
2023-03-10T00:31:01.822Z,81.50
2023-03-10T00:33:35.139Z,82.08
2023-03-10T00:36:07.768Z,79.74
2023-03-10T00:38:39.021Z,78.91
2023-03-10T00:41:15.390Z,79.22
2023-03-10T00:43:43.813Z,79.04
2023-03-10T00:46:11.924Z,79.86
2023-03-10T00:48:40.079Z,80.04
2023-03-10T00:51:08.137Z,79.28
2023-03-10T00:53:38.008Z,79.32
2023-03-10T00:56:11.977Z,79.02
2023-03-10T00:58:39.596Z,78.74
2023-03-10T01:01:14.306Z,78.10
2023-03-10T01:03:42.558Z,78.63
2023-03-10T01:06:10.610Z,78.10
2023-03-10T01:08:38.068Z,78.86
2023-03-10T01:11:05.562Z,78.92
2023-03-10T01:13:33.482Z,77.74
2023-03-10T01:16:04.380Z,77.65
2023-03-10T01:18:31.687Z,77.85
2023-03-10T01:20:59.513Z,78.25
2023-03-10T01:23:27.577Z,78.50
2023-03-10T01:25:55.262Z,78.97
2023-03-10T01:28:23.119Z,79.07
2023-03-10T01:30:51.048Z,79.89
2023-03-10T01:33:18.905Z,79.47
2023-03-10T01:35:46.516Z,78.99
2023-03-10T01:38:14.133Z,79.76
2023-03-10T01:40:48.678Z,79.81
2023-03-10T01:43:22.024Z,79.31
2023-03-10T01:45:52.563Z,79.10
2023-03-10T01:48:22.513Z,79.03
2023-03-10T01:50:55.399Z,78.58
2023-03-10T01:53:25.718Z,79.18
2023-03-10T01:55:57.409Z,79.83
2023-03-10T01:58:29.776Z,80.13
2023-03-10T02:00:57.229Z,79.69
2023-03-10T02:03:28.913Z,78.82
2023-03-10T02:06:00.315Z,78.78
2023-03-10T02:08:34.903Z,78.64
2023-03-10T02:11:02.836Z,78.12
2023-03-10T02:13:30.265Z,78.20
2023-03-10T02:15:57.830Z,78.22
2023-03-10T02:18:26.161Z,79.30
2023-03-10T02:21:03.411Z,78.85
2023-03-10T02:23:58.849Z,79.17
2023-03-10T02:26:46.878Z,79.66
2023-03-10T02:29:22.353Z,79.71
2023-03-10T02:31:51.041Z,79.35
2023-03-10T02:34:18.928Z,79.43
2023-03-10T02:36:46.324Z,79.92
2023-03-10T02:39:13.712Z,80.39
2023-03-10T02:41:43.027Z,81.44
2023-03-10T02:44:18.716Z,81.87
2023-03-10T02:46:46.117Z,82.08
2023-03-10T02:49:13.630Z,82.64
2023-03-10T02:51:46.917Z,82.20
2023-03-10T02:54:16.787Z,81.23
2023-03-10T02:56:45.543Z,80.75
2023-03-10T02:59:15.031Z,80.30
2023-03-10T03:01:47.096Z,80.17
2023-03-10T03:04:15.466Z,80.73
2023-03-10T03:06:43.523Z,80.16
2023-03-10T03:09:10.999Z,80.32
2023-03-10T03:11:38.312Z,79.34
2023-03-10T03:14:08.973Z,78.85
2023-03-10T03:16:36.518Z,78.81
2023-03-10T03:19:07.710Z,79.24
2023-03-10T03:21:35.119Z,80.07
2023-03-10T03:24:02.475Z,80.70
2023-03-10T03:26:29.879Z,80.41
2023-03-10T03:29:02.402Z,79.67
2023-03-10T03:31:33.599Z,79.41
2023-03-10T03:34:20.702Z,80.01
2023-03-10T03:36:49.713Z,80.65
2023-03-10T03:39:22.866Z,81.05
2023-03-10T03:41:57.313Z,81.87
2023-03-10T03:44:27.098Z,81.64
2023-03-10T03:46:55.585Z,82.12
2023-03-10T03:49:24.120Z,81.50
2023-03-10T03:51:51.640Z,81.74
2023-03-10T03:54:19.696Z,81.04
2023-03-10T03:56:47.475Z,80.61
2023-03-10T03:59:16.312Z,80.75
2023-03-10T04:01:45.053Z,80.47
2023-03-10T04:04:12.604Z,80.02
2023-03-10T04:06:40.870Z,80.50
2023-03-10T04:09:10.544Z,81.07
2023-03-10T04:11:38.930Z,80.73
2023-03-10T04:14:06.607Z,80.63
2023-03-10T04:16:34.056Z,80.14
2023-03-10T04:19:07.429Z,79.97
2023-03-10T04:21:36.072Z,80.84
2023-03-10T04:24:03.769Z,80.62
2023-03-10T04:26:32.879Z,80.20
2023-03-10T04:29:00.541Z,80.14
2023-03-10T04:31:31.508Z,80.06
2023-03-10T04:34:00.940Z,80.52
2023-03-10T04:36:28.487Z,80.25
2023-03-10T04:38:58.919Z,80.39
2023-03-10T04:41:30.408Z,80.01
2023-03-10T04:43:57.941Z,80.02
2023-03-10T04:46:25.437Z,79.85
2023-03-10T04:48:53.257Z,79.98
2023-03-10T04:51:20.646Z,79.88
2023-03-10T04:53:51.322Z,80.14
2023-03-10T04:56:19.569Z,79.57
2023-03-10T04:58:47.662Z,79.65
2023-03-10T05:01:15.954Z,79.49
2023-03-10T05:03:47.776Z,79.14
2023-03-10T05:06:21.337Z,78.95
2023-03-10T05:09:11.438Z,79.45
2023-03-10T05:11:39.175Z,78.99
2023-03-10T05:14:06.572Z,79.41
2023-03-10T05:16:34.114Z,79.48
2023-03-10T05:19:02.142Z,78.55
2023-03-10T05:21:31.487Z,78.33
2023-03-10T05:23:59.846Z,79.09
2023-03-10T05:26:27.887Z,79.58
2023-03-10T05:28:55.348Z,80.02
2023-03-10T05:31:31.053Z,79.45
2023-03-10T05:34:05.048Z,79.43
2023-03-10T05:36:32.487Z,79.50
2023-03-10T05:39:00.697Z,79.86
2023-03-10T05:41:29.308Z,80.14
2023-03-10T05:43:58.803Z,80.78
2023-03-10T05:46:26.703Z,81.41
2023-03-10T05:48:58.278Z,81.88
2023-03-10T05:51:26.419Z,81.99
2023-03-10T05:53:54.485Z,81.67
2023-03-10T05:56:26.340Z,81.87
2023-03-10T05:58:58.031Z,81.56
2023-03-10T06:01:30.432Z,81.64
2023-03-10T06:03:58.033Z,81.35
2023-03-10T06:06:25.528Z,81.52
2023-03-10T06:08:52.932Z,81.36
2023-03-10T06:11:20.309Z,82.12
2023-03-10T06:13:47.644Z,81.91
2023-03-10T06:16:15.273Z,82.42
2023-03-10T06:18:42.897Z,82.22
2023-03-10T06:21:13.303Z,82.76
2023-03-10T06:23:41.583Z,81.96
2023-03-10T06:26:14.480Z,81.61
2023-03-10T06:28:44.012Z,81.64
2023-03-10T06:31:20.905Z,82.13
2023-03-10T06:33:48.484Z,81.84
2023-03-10T06:36:16.806Z,81.98
2023-03-10T06:38:44.384Z,82.35
2023-03-10T06:41:12.199Z,82.04
2023-03-10T06:43:40.518Z,81.21
2023-03-10T06:46:10.110Z,80.91
2023-03-10T06:48:39.064Z,81.75
2023-03-10T06:51:08.757Z,81.79
2023-03-10T06:53:36.624Z,83.42
2023-03-10T06:56:13.030Z,83.71
2023-03-10T06:58:41.406Z,83.38
2023-03-10T07:01:09.488Z,83.51
2023-03-10T07:03:36.975Z,83.01
2023-03-10T07:06:05.594Z,82.64
2023-03-10T07:08:32.928Z,81.93
2023-03-10T07:11:00.198Z,81.45
2023-03-10T07:13:27.611Z,80.98
2023-03-10T07:15:55.072Z,81.04
2023-03-10T07:18:27.752Z,80.76
2023-03-10T07:20:55.771Z,80.63
2023-03-10T07:23:23.979Z,80.70
2023-03-10T07:25:53.272Z,80.88
2023-03-10T07:28:20.841Z,80.74
2023-03-10T07:30:49.359Z,80.24
2023-03-10T07:33:17.048Z,78.67
2023-03-10T07:35:44.528Z,77.86
2023-03-10T07:38:11.942Z,78.21
2023-03-10T07:40:40.596Z,77.78
2023-03-10T07:43:07.957Z,77.45
2023-03-10T07:45:37.756Z,76.48
2023-03-10T07:48:05.496Z,73.89
2023-03-10T07:50:32.881Z,73.56
2023-03-10T07:53:00.212Z,70.72
2023-03-10T07:55:27.527Z,69.44
2023-03-10T07:57:56.875Z,69.49
2023-03-10T08:00:24.341Z,68.95
2023-03-10T08:02:51.720Z,67.89
2023-03-10T08:05:19.260Z,67.04
2023-03-10T08:07:47.126Z,66.06
2023-03-10T08:10:14.485Z,66.18
2023-03-10T08:12:41.957Z,67.29
2023-03-10T08:15:11.101Z,68.67
2023-03-10T08:17:38.456Z,70.02
2023-03-10T08:20:06.951Z,69.63
2023-03-10T08:22:34.521Z,69.08
2023-03-10T08:25:03.105Z,69.54
2023-03-10T08:27:30.507Z,70.17
2023-03-10T08:29:57.892Z,69.66
2023-03-10T08:32:25.285Z,69.53
2023-03-10T08:34:53.147Z,69.64
2023-03-10T08:37:20.677Z,69.78
2023-03-10T08:39:50.061Z,69.72
2023-03-10T08:42:17.500Z,69.25
2023-03-10T08:44:44.901Z,69.69
2023-03-10T08:47:12.241Z,69.27
2023-03-10T08:49:40.793Z,69.84
2023-03-10T08:52:09.739Z,69.55
2023-03-10T08:54:37.121Z,69.49
2023-03-10T08:57:04.584Z,69.03
2023-03-10T08:59:31.957Z,68.41
2023-03-10T09:01:59.453Z,68.08
2023-03-10T09:04:26.913Z,67.44
2023-03-10T09:06:54.330Z,67.87
2023-03-10T09:09:21.752Z,68.08
2023-03-10T09:11:49.178Z,67.86
2023-03-10T09:14:17.380Z,68.07
2023-03-10T09:16:45.259Z,67.17
2023-03-10T09:19:12.763Z,66.25
2023-03-10T09:21:42.370Z,64.67
2023-03-10T09:24:09.904Z,63.56
2023-03-10T09:26:37.250Z,62.83
2023-03-10T09:29:05.245Z,61.04
2023-03-10T09:31:35.496Z,61.20
2023-03-10T09:34:04.048Z,61.65
2023-03-10T09:36:32.499Z,62.37
2023-03-10T09:39:01.082Z,62.28
2023-03-10T09:41:41.574Z,62.31
2023-03-10T09:44:30.915Z,62.54
2023-03-10T09:47:10.908Z,62.61
2023-03-10T09:49:39.311Z,62.67
2023-03-10T09:52:45.927Z,62.50
2023-03-10T09:55:20.554Z,62.71
2023-03-10T09:57:50.984Z,63.06
2023-03-10T10:00:28.511Z,62.89
2023-03-10T10:03:07.313Z,63.27
2023-03-10T10:05:37.484Z,62.30
2023-03-10T10:08:18.356Z,62.02
2023-03-10T10:10:50.870Z,62.47
2023-03-10T10:13:18.211Z,61.76
2023-03-10T10:16:07.299Z,62.18
2023-03-10T10:18:43.448Z,61.57
2023-03-10T10:21:19.259Z,61.34
2023-03-10T10:23:54.845Z,61.71
2023-03-10T10:26:26.348Z,61.68
2023-03-10T10:29:16.587Z,61.73
2023-03-10T10:32:03.096Z,61.74
2023-03-10T10:34:32.161Z,61.75
2023-03-10T10:37:00.684Z,61.88
2023-03-10T10:39:40.775Z,61.75
2023-03-10T10:42:20.938Z,61.47
2023-03-10T10:44:53.413Z,61.02
2023-03-10T10:47:28.147Z,60.18
2023-03-10T10:50:09.288Z,60.47
2023-03-10T10:52:36.716Z,61.21
2023-03-10T10:55:05.222Z,61.37
2023-03-10T10:57:35.320Z,60.35
2023-03-10T11:00:27.299Z,60.46
2023-03-10T11:02:54.655Z,61.00
2023-03-10T11:05:24.014Z,60.78
2023-03-10T11:07:52.232Z,60.76
2023-03-10T11:10:27.737Z,60.07
2023-03-10T11:13:07.156Z,60.65
2023-03-10T11:15:39.706Z,59.74
2023-03-10T11:18:27.003Z,60.01
2023-03-10T11:21:09.895Z,58.54
2023-03-10T11:23:58.988Z,58.55
2023-03-10T11:27:07.628Z,58.20
2023-03-10T11:29:51.434Z,58.97
2023-03-10T11:32:22.023Z,59.12
2023-03-10T11:34:51.743Z,57.64
2023-03-10T11:37:30.521Z,57.94
2023-03-10T11:40:19.720Z,58.45
2023-03-10T11:43:16.200Z,57.34
2023-03-10T11:45:52.587Z,56.13
2023-03-10T11:48:33.554Z,56.96
2023-03-10T11:51:06.031Z,57.17
2023-03-10T11:53:46.071Z,55.74
2023-03-10T11:56:15.595Z,56.98
2023-03-10T11:58:48.594Z,56.47
2023-03-10T12:01:28.275Z,56.17
2023-03-10T12:04:21.800Z,55.79
2023-03-10T12:06:55.276Z,55.52
2023-03-10T12:09:38.114Z,54.66
2023-03-10T12:12:07.564Z,55.22
2023-03-10T12:14:35.712Z,55.71
2023-03-10T12:17:05.319Z,55.27
2023-03-10T12:19:32.675Z,54.98
2023-03-10T12:22:35.854Z,54.98
2023-03-10T12:25:03.492Z,55.42
2023-03-10T12:27:30.883Z,54.81
2023-03-10T12:29:58.305Z,55.36
2023-03-10T12:32:47.965Z,55.42
2023-03-10T12:35:22.895Z,55.45
2023-03-10T12:37:50.432Z,55.76
2023-03-10T12:40:47.544Z,55.76
2023-03-10T12:43:54.122Z,55.65
2023-03-10T12:46:48.874Z,53.26
2023-03-10T12:49:40.751Z,52.84
2023-03-10T12:52:11.135Z,52.45
2023-03-10T12:54:47.187Z,51.96
2023-03-10T12:57:33.890Z,52.08
2023-03-10T13:00:15.421Z,51.51
2023-03-10T13:03:02.713Z,51.81
2023-03-10T13:05:33.783Z,52.05
2023-03-10T13:08:27.249Z,51.83
2023-03-10T13:10:56.221Z,52.01
2023-03-10T13:13:29.999Z,51.39
2023-03-10T13:16:05.679Z,51.67
2023-03-10T13:18:34.053Z,52.15
2023-03-10T13:21:01.849Z,50.61
2023-03-10T13:23:35.387Z,49.54
2023-03-10T13:26:09.158Z,50.01
2023-03-10T13:28:36.603Z,50.81
2023-03-10T13:31:16.170Z,51.41
2023-03-10T13:33:52.892Z,51.75
2023-03-10T13:36:35.645Z,52.28
2023-03-10T13:39:15.826Z,52.45
2023-03-10T13:41:52.417Z,53.64
2023-03-10T13:44:25.644Z,52.95
2023-03-10T13:47:01.020Z,52.49
2023-03-10T13:49:33.402Z,51.90
2023-03-10T13:52:04.053Z,51.25
2023-03-10T13:54:33.845Z,50.22
2023-03-10T13:57:09.548Z,49.83
2023-03-10T13:59:38.406Z,50.04
2023-03-10T14:02:17.084Z,50.28
2023-03-10T14:04:49.067Z,50.20
2023-03-10T14:07:31.479Z,50.46
2023-03-10T14:10:04.964Z,50.64
2023-03-10T14:12:51.270Z,51.06
2023-03-10T14:15:25.490Z,50.79
2023-03-10T14:18:08.146Z,50.40
2023-03-10T14:20:37.112Z,51.50
2023-03-10T14:23:21.818Z,50.86
2023-03-10T14:25:54.562Z,50.67
2023-03-10T14:28:32.610Z,49.53
2023-03-10T14:31:02.431Z,49.67
2023-03-10T14:33:49.518Z,49.00
2023-03-10T14:36:17.283Z,49.55
2023-03-10T14:38:46.005Z,50.24
2023-03-10T14:41:14.103Z,49.88
2023-03-10T14:43:42.441Z,50.32
2023-03-10T14:46:12.604Z,50.93
2023-03-10T14:48:45.949Z,50.50
2023-03-10T14:51:25.837Z,50.85
2023-03-10T14:54:01.705Z,51.31
2023-03-10T14:56:33.359Z,51.69
2023-03-10T14:59:02.544Z,50.97
2023-03-10T15:01:30.610Z,50.88
2023-03-10T15:03:57.978Z,50.30
2023-03-10T15:06:25.414Z,50.30
2023-03-10T15:08:52.838Z,51.18
2023-03-10T15:11:35.663Z,51.28
2023-03-10T15:14:17.673Z,51.78
2023-03-10T15:16:45.280Z,52.13
2023-03-10T15:19:22.449Z,52.86
2023-03-10T15:21:50.252Z,53.01
2023-03-10T15:24:17.629Z,52.89
2023-03-10T15:26:45.166Z,53.15
2023-03-10T15:29:17.501Z,54.17
2023-03-10T15:31:46.284Z,54.33
2023-03-10T15:34:13.964Z,53.92
2023-03-10T15:36:41.480Z,52.67
2023-03-10T15:39:11.088Z,52.78
2023-03-10T15:41:43.086Z,51.64
2023-03-10T15:44:10.784Z,51.57
2023-03-10T15:46:38.468Z,51.14
2023-03-10T15:49:06.591Z,51.89
2023-03-10T15:51:33.955Z,51.64
2023-03-10T15:54:01.321Z,52.20
2023-03-10T15:56:28.812Z,52.92
2023-03-10T15:58:56.707Z,53.18
2023-03-10T16:01:24.168Z,53.38
2023-03-10T16:03:57.916Z,53.90
2023-03-10T16:06:27.555Z,54.69
2023-03-10T16:08:56.302Z,54.25
2023-03-10T16:11:23.869Z,54.56
2023-03-10T16:13:51.292Z,54.66
2023-03-10T16:16:20.224Z,54.60
2023-03-10T16:18:47.747Z,55.11
2023-03-10T16:21:17.954Z,55.24
2023-03-10T16:23:46.250Z,55.37
2023-03-10T16:26:15.407Z,56.04
2023-03-10T16:28:48.606Z,56.16
2023-03-10T16:31:17.668Z,56.59
2023-03-10T16:33:54.290Z,56.42
2023-03-10T16:36:25.210Z,56.65
2023-03-10T16:38:56.377Z,56.75
2023-03-10T16:41:26.408Z,56.52
2023-03-10T16:43:54.718Z,56.65
2023-03-10T16:46:25.642Z,56.68
2023-03-10T16:48:54.558Z,57.04
2023-03-10T16:51:35.469Z,56.89
2023-03-10T16:54:11.834Z,56.87
2023-03-10T16:56:42.383Z,57.00
2023-03-10T16:59:18.740Z,57.22
2023-03-10T17:01:53.025Z,57.54
2023-03-10T17:04:20.686Z,57.54
2023-03-10T17:06:48.502Z,57.68
2023-03-10T17:09:19.940Z,57.76
2023-03-10T17:11:54.881Z,58.02
2023-03-10T17:14:26.383Z,58.39
2023-03-10T17:16:58.356Z,58.29
2023-03-10T17:19:29.836Z,58.59
2023-03-10T17:21:59.611Z,58.85
2023-03-10T17:24:27.720Z,58.92
2023-03-10T17:26:55.217Z,59.45
2023-03-10T17:29:22.647Z,59.38
2023-03-10T17:31:51.742Z,59.23
2023-03-10T17:34:19.917Z,59.68
2023-03-10T17:36:50.290Z,59.63
2023-03-10T17:39:20.503Z,60.11
2023-03-10T17:41:48.254Z,60.36
2023-03-10T17:44:16.650Z,60.36
2023-03-10T17:46:44.030Z,60.90
2023-03-10T17:49:13.112Z,60.81
2023-03-10T17:51:47.351Z,60.77
2023-03-10T17:54:20.728Z,61.34
2023-03-10T17:56:49.393Z,61.52
2023-03-10T17:59:17.706Z,61.30
2023-03-10T18:01:46.382Z,61.36
2023-03-10T18:04:13.924Z,61.96
2023-03-10T18:06:41.888Z,62.07
2023-03-10T18:09:12.969Z,62.23
2023-03-10T18:11:40.762Z,61.99
2023-03-10T18:14:08.276Z,61.85
2023-03-10T18:16:39.430Z,62.14
2023-03-10T18:19:10.470Z,62.04
2023-03-10T18:21:38.770Z,61.64
2023-03-10T18:24:13.376Z,61.05
2023-03-10T18:26:45.231Z,60.66
2023-03-10T18:29:13.482Z,60.32
2023-03-10T18:31:40.924Z,59.70
2023-03-10T18:34:10.195Z,59.77
2023-03-10T18:36:37.763Z,59.46
2023-03-10T18:39:07.860Z,59.43
2023-03-10T18:41:36.055Z,59.81
2023-03-10T18:44:04.986Z,59.83
2023-03-10T18:46:32.412Z,60.03
2023-03-10T18:48:59.804Z,60.02
2023-03-10T18:51:28.484Z,59.56
2023-03-10T18:54:06.880Z,59.51
2023-03-10T18:56:34.799Z,59.27
2023-03-10T18:59:03.307Z,58.84
2023-03-10T19:01:30.762Z,58.94
2023-03-10T19:03:58.313Z,59.08
2023-03-10T19:06:34.439Z,58.90
2023-03-10T19:09:02.493Z,58.64
2023-03-10T19:11:37.589Z,59.06
2023-03-10T19:14:06.125Z,58.51
2023-03-10T19:16:35.713Z,58.35
2023-03-10T19:19:03.133Z,57.60
2023-03-10T19:21:30.812Z,57.32
2023-03-10T19:23:58.552Z,57.00
2023-03-10T19:26:26.510Z,56.84
2023-03-10T19:28:54.159Z,56.82
2023-03-10T19:31:28.963Z,56.93
2023-03-10T19:33:58.179Z,56.84
2023-03-10T19:36:26.748Z,56.71
2023-03-10T19:38:58.291Z,56.62
2023-03-10T19:41:27.059Z,57.17
2023-03-10T19:43:54.772Z,57.78
2023-03-10T19:46:22.421Z,58.22
2023-03-10T19:48:50.703Z,58.64
2023-03-10T19:51:28.102Z,58.96
2023-03-10T19:53:56.962Z,59.07
2023-03-10T19:56:27.700Z,59.27
2023-03-10T19:58:56.335Z,58.80
2023-03-10T20:01:26.464Z,56.83
2023-03-10T20:03:57.850Z,56.02
2023-03-10T20:06:25.560Z,55.80
2023-03-10T20:08:54.446Z,56.19
2023-03-10T20:11:22.489Z,56.21
2023-03-10T20:13:52.483Z,56.46
2023-03-10T20:16:22.738Z,56.54
2023-03-10T20:18:50.343Z,56.72
2023-03-10T20:21:18.359Z,56.74
2023-03-10T20:23:48.504Z,56.36
2023-03-10T20:26:18.025Z,56.14
2023-03-10T20:28:46.139Z,56.10
2023-03-10T20:31:19.366Z,56.42
2023-03-10T20:33:47.227Z,56.38
2023-03-10T20:36:16.051Z,56.54
2023-03-10T20:38:45.077Z,56.45
2023-03-10T20:41:15.306Z,56.36
2023-03-10T20:43:43.856Z,56.96
2023-03-10T20:46:13.094Z,57.09
2023-03-10T20:48:40.883Z,56.20
2023-03-10T20:51:08.335Z,54.35
2023-03-10T20:53:37.434Z,54.09
2023-03-10T20:56:10.970Z,53.27
2023-03-10T20:58:38.629Z,50.79
2023-03-10T21:01:06.236Z,49.57
2023-03-10T21:03:34.048Z,47.90
2023-03-10T21:06:01.428Z,47.84
2023-03-10T21:08:28.807Z,47.57
2023-03-10T21:10:56.244Z,47.15
2023-03-10T21:13:23.672Z,47.17
2023-03-10T21:15:50.977Z,46.68
2023-03-10T21:18:18.664Z,46.67
2023-03-10T21:20:46.246Z,46.64
2023-03-10T21:23:13.851Z,46.72
2023-03-10T21:25:41.821Z,46.31
2023-03-10T21:28:09.662Z,45.80
2023-03-10T21:30:38.808Z,45.79
2023-03-10T21:33:08.116Z,45.38
2023-03-10T21:35:38.618Z,45.31
2023-03-10T21:38:06.680Z,44.89
2023-03-10T21:40:34.250Z,44.70
2023-03-10T21:43:02.875Z,44.32
2023-03-10T21:45:30.952Z,44.10
2023-03-10T21:47:58.896Z,44.10
2023-03-10T21:50:26.573Z,44.35
2023-03-10T21:52:55.077Z,44.04
2023-03-10T21:55:25.110Z,44.44
2023-03-10T21:57:52.734Z,44.79
2023-03-10T22:00:24.208Z,44.33
2023-03-10T22:02:53.081Z,44.34
2023-03-10T22:05:21.569Z,44.18
2023-03-10T22:07:50.571Z,44.50
2023-03-10T22:10:18.852Z,44.42
2023-03-10T22:12:46.757Z,44.72
2023-03-10T22:15:21.020Z,44.81
2023-03-10T22:17:49.376Z,44.90
2023-03-10T22:20:24.810Z,44.88
2023-03-10T22:22:52.707Z,44.71
2023-03-10T22:25:20.829Z,45.01
2023-03-10T22:27:55.805Z,45.04
2023-03-10T22:30:25.936Z,45.22
2023-03-10T22:32:54.642Z,45.49
2023-03-10T22:35:22.591Z,45.45
2023-03-10T22:37:51.537Z,45.36
2023-03-10T22:40:22.256Z,45.36
2023-03-10T22:42:49.923Z,45.47
2023-03-10T22:45:25.302Z,45.52
2023-03-10T22:47:55.890Z,45.99
2023-03-10T22:50:44.472Z,45.93
2023-03-10T22:53:17.158Z,45.99
2023-03-10T22:55:46.497Z,45.97
2023-03-10T22:58:16.282Z,46.04
2023-03-10T23:00:44.595Z,46.22
2023-03-10T23:03:13.809Z,46.27
2023-03-10T23:05:41.890Z,46.42
2023-03-10T23:08:09.331Z,46.11
2023-03-10T23:10:39.666Z,46.14
2023-03-10T23:13:11.886Z,46.13
2023-03-10T23:15:39.915Z,46.37
2023-03-10T23:18:08.058Z,46.22
2023-03-10T23:20:40.880Z,46.25
2023-03-10T23:23:09.777Z,46.38
2023-03-10T23:25:40.053Z,45.85
2023-03-10T23:28:09.733Z,46.06
2023-03-10T23:30:38.784Z,46.50
2023-03-10T23:33:07.559Z,46.47
2023-03-10T23:35:36.289Z,46.27
2023-03-10T23:38:05.809Z,46.37
2023-03-10T23:40:35.905Z,45.97
2023-03-10T23:43:05.901Z,46.19
2023-03-10T23:45:36.985Z,45.89
2023-03-10T23:48:07.337Z,45.32
2023-03-10T23:50:37.669Z,45.94
2023-03-10T23:53:07.618Z,46.26
2023-03-10T23:55:38.204Z,46.29
2023-03-10T23:58:06.863Z,46.24
